createdAt,value
2022-08-29T00:01:01.449Z,16.05
2022-08-29T00:03:31.105Z,15.13
2022-08-29T00:06:00.360Z,16.17
2022-08-29T00:08:29.818Z,17.98
2022-08-29T00:10:59.174Z,17.42
2022-08-29T00:13:29.864Z,21.17
2022-08-29T00:15:59.058Z,24.23
2022-08-29T00:18:28.407Z,22.67
2022-08-29T00:20:57.604Z,20.38
2022-08-29T00:23:26.759Z,18.27
2022-08-29T00:25:57.580Z,17.80
2022-08-29T00:28:27.300Z,14.73
2022-08-29T00:30:56.679Z,15.07
2022-08-29T00:33:25.889Z,17.35
2022-08-29T00:35:55.073Z,16.95
2022-08-29T00:38:27.994Z,17.45
2022-08-29T00:40:59.948Z,16.05
2022-08-29T00:43:33.618Z,17.48
2022-08-29T00:46:12.275Z,16.45
2022-08-29T00:48:42.831Z,16.80
2022-08-29T00:51:18.498Z,15.55
2022-08-29T00:53:50.672Z,13.00
2022-08-29T00:56:20.379Z,13.05
2022-08-29T00:58:55.664Z,12.68
2022-08-29T01:01:25.845Z,11.23
2022-08-29T01:03:56.051Z,14.88
2022-08-29T01:06:28.889Z,12.73
2022-08-29T01:08:58.916Z,10.63
2022-08-29T01:11:51.456Z,8.65
2022-08-29T01:14:22.835Z,7.22
2022-08-29T01:16:54.196Z,7.40
2022-08-29T01:19:32.444Z,8.45
2022-08-29T01:22:22.747Z,8.30
2022-08-29T01:24:55.003Z,8.60
2022-08-29T01:27:42.172Z,8.20
2022-08-29T01:30:13.336Z,9.45
2022-08-29T01:32:45.928Z,8.52
2022-08-29T01:35:24.482Z,8.23
2022-08-29T01:38:03.765Z,6.75
2022-08-29T01:40:57.608Z,10.20
2022-08-29T01:44:29.587Z,8.55
2022-08-29T01:47:22.144Z,8.00
2022-08-29T01:51:06.893Z,7.60
2022-08-29T01:53:38.543Z,6.97
2022-08-29T01:57:37.815Z,7.30
2022-08-29T02:00:38.977Z,3.80
2022-08-29T02:03:25.671Z,2.70
2022-08-29T02:06:16.883Z,2.72
2022-08-29T02:09:04.273Z,2.50
2022-08-29T02:11:43.553Z,2.45
2022-08-29T02:17:11.055Z,2.00
2022-08-29T02:22:39.222Z,2.60
2022-08-29T02:25:29.578Z,2.60
2022-08-29T02:28:00.394Z,2.50
2022-08-29T02:30:29.664Z,2.40
2022-08-29T02:32:59.169Z,2.00
2022-08-29T02:35:28.632Z,1.70
2022-08-29T02:38:00.156Z,2.40
2022-08-29T02:40:31.588Z,2.10
2022-08-29T02:43:02.534Z,2.22
2022-08-29T02:45:32.316Z,2.10
2022-08-29T02:48:02.063Z,2.40
2022-08-29T02:50:31.833Z,1.90
2022-08-29T02:53:01.531Z,2.03
2022-08-29T02:55:31.365Z,2.20
2022-08-29T02:58:01.080Z,2.22
2022-08-29T03:00:32.613Z,2.50
2022-08-29T03:03:12.907Z,2.40
2022-08-29T03:05:44.248Z,2.03
2022-08-29T03:08:22.147Z,2.33
2022-08-29T03:10:51.593Z,6.95
2022-08-29T03:13:22.677Z,2.58
2022-08-29T03:15:52.692Z,2.47
2022-08-29T03:18:22.513Z,2.40
2022-08-29T03:20:52.067Z,2.60
2022-08-29T03:23:21.600Z,2.70
2022-08-29T03:25:51.362Z,2.28
2022-08-29T03:28:20.604Z,2.47
2022-08-29T03:30:50.239Z,2.75
2022-08-29T03:33:20.059Z,2.55
2022-08-29T03:35:49.341Z,2.30
2022-08-29T03:38:18.940Z,2.53
2022-08-29T03:40:48.227Z,2.90
2022-08-29T03:43:18.483Z,2.42
2022-08-29T03:45:47.850Z,5.13
2022-08-29T03:48:17.713Z,3.35
2022-08-29T03:50:47.027Z,3.47
2022-08-29T03:53:16.352Z,2.85
2022-08-29T03:55:45.843Z,4.00
2022-08-29T03:58:15.470Z,3.35
2022-08-29T04:00:49.204Z,3.85
2022-08-29T04:03:40.207Z,2.88
2022-08-29T04:06:09.067Z,3.15
2022-08-29T04:08:41.158Z,2.58
2022-08-29T04:11:15.263Z,3.15
2022-08-29T04:13:44.854Z,2.70
2022-08-29T04:16:19.565Z,2.55
2022-08-29T04:18:49.711Z,2.60
2022-08-29T04:21:20.193Z,2.42
2022-08-29T04:23:49.737Z,2.80
2022-08-29T04:26:37.647Z,2.78
2022-08-29T04:29:09.904Z,2.42
2022-08-29T04:31:40.619Z,2.70
2022-08-29T04:34:16.957Z,2.20
2022-08-29T04:36:48.686Z,2.28
2022-08-29T04:39:24.769Z,2.97
2022-08-29T04:41:57.842Z,3.03
2022-08-29T04:44:33.023Z,2.70
2022-08-29T04:47:05.673Z,2.40
2022-08-29T04:49:35.843Z,2.50
2022-08-29T04:52:12.012Z,2.50
2022-08-29T04:54:42.496Z,4.07
2022-08-29T04:57:12.267Z,2.90
2022-08-29T04:59:50.503Z,2.60
2022-08-29T05:02:21.978Z,2.50
2022-08-29T05:04:55.896Z,2.75
2022-08-29T05:07:28.394Z,2.78
2022-08-29T05:10:03.642Z,2.83
2022-08-29T05:12:35.107Z,2.35
2022-08-29T05:15:06.537Z,3.78
2022-08-29T05:17:36.324Z,2.25
2022-08-29T05:20:09.183Z,2.28
2022-08-29T05:22:39.987Z,2.42
2022-08-29T05:25:12.353Z,2.50
2022-08-29T05:27:44.040Z,2.97
2022-08-29T05:30:14.573Z,2.55
2022-08-29T05:32:44.357Z,2.92
2022-08-29T05:35:13.545Z,3.10
2022-08-29T05:37:42.888Z,2.67
2022-08-29T05:40:12.616Z,2.78
2022-08-29T05:42:44.609Z,2.58
2022-08-29T05:45:14.842Z,3.25
2022-08-29T05:47:47.165Z,2.72
2022-08-29T05:50:18.478Z,3.40
2022-08-29T05:52:52.215Z,2.67
2022-08-29T05:55:21.654Z,2.78
2022-08-29T05:57:53.119Z,3.60
2022-08-29T06:00:22.933Z,3.00
2022-08-29T06:02:52.190Z,2.80
2022-08-29T06:05:21.639Z,3.33
2022-08-29T06:07:53.945Z,2.40
2022-08-29T06:10:23.279Z,2.65
2022-08-29T06:12:52.556Z,2.28
2022-08-29T06:15:22.109Z,3.05
2022-08-29T06:17:52.064Z,2.70
2022-08-29T06:20:21.716Z,2.88
2022-08-29T06:22:50.999Z,3.20
2022-08-29T06:25:38.541Z,2.72
2022-08-29T06:28:09.619Z,2.80
2022-08-29T06:30:39.897Z,2.78
2022-08-29T06:33:09.895Z,2.72
2022-08-29T06:35:39.103Z,3.97
2022-08-29T06:38:13.296Z,2.75
2022-08-29T06:40:44.224Z,2.95
2022-08-29T06:43:13.558Z,2.95
2022-08-29T06:45:44.981Z,2.63
2022-08-29T06:48:15.368Z,2.45
2022-08-29T06:50:45.684Z,3.17
2022-08-29T06:53:27.593Z,3.10
2022-08-29T06:56:11.056Z,2.88
2022-08-29T06:58:41.175Z,3.25
2022-08-29T07:09:41.837Z,3.50
2022-08-29T07:12:11.066Z,3.40
2022-08-29T07:14:46.229Z,3.30
2022-08-29T07:17:25.601Z,3.85
2022-08-29T07:19:56.075Z,3.50
2022-08-29T07:22:27.717Z,4.53
2022-08-29T07:24:58.237Z,3.53
2022-08-29T07:27:27.449Z,5.00
2022-08-29T07:29:58.046Z,3.90
2022-08-29T07:32:27.259Z,3.60
2022-08-29T07:34:56.510Z,3.30
2022-08-29T07:37:26.010Z,3.72
2022-08-29T07:39:55.455Z,3.78
2022-08-29T07:42:25.225Z,3.53
2022-08-29T07:44:54.489Z,3.90
2022-08-29T07:47:25.868Z,3.15
2022-08-29T07:49:55.512Z,4.35
2022-08-29T07:52:24.771Z,3.17
2022-08-29T07:54:54.012Z,3.67
2022-08-29T07:57:25.103Z,3.95
2022-08-29T07:59:54.491Z,3.78
2022-08-29T08:02:26.115Z,4.22
2022-08-29T08:04:55.933Z,5.90
2022-08-29T08:07:29.377Z,3.88
2022-08-29T08:09:58.982Z,6.50
2022-08-29T08:12:28.554Z,3.75
2022-08-29T08:14:58.433Z,2.80
2022-08-29T08:17:30.054Z,3.65
2022-08-29T08:20:02.132Z,3.30
2022-08-29T08:22:31.483Z,3.30
2022-08-29T08:25:05.438Z,3.40
2022-08-29T08:27:47.905Z,3.95
2022-08-29T08:30:30.046Z,3.40
2022-08-29T08:33:35.815Z,3.17
2022-08-29T08:36:14.962Z,4.47
2022-08-29T08:38:46.112Z,3.40
2022-08-29T08:41:37.642Z,5.25
2022-08-29T08:44:15.001Z,4.35
2022-08-29T08:46:49.551Z,3.92
2022-08-29T08:49:58.467Z,3.45
2022-08-29T08:52:34.327Z,2.88
2022-08-29T08:55:21.877Z,2.05
2022-08-29T08:58:02.665Z,2.03
2022-08-29T09:00:45.205Z,1.77
2022-08-29T09:03:35.261Z,1.92
2022-08-29T09:06:37.786Z,2.20
2022-08-29T09:09:28.184Z,2.20
2022-08-29T09:12:25.190Z,2.65
2022-08-29T09:15:13.925Z,2.75
2022-08-29T09:18:03.969Z,2.38
2022-08-29T09:20:36.311Z,2.17
2022-08-29T09:23:44.403Z,2.25
2022-08-29T09:26:19.186Z,2.10
2022-08-29T09:28:49.172Z,13.82
2022-08-29T09:37:33.233Z,2.65
2022-08-29T09:40:06.730Z,2.55
2022-08-29T09:42:43.059Z,3.00
2022-08-29T09:45:25.325Z,3.47
2022-08-29T09:48:19.626Z,3.70
2022-08-29T09:50:51.220Z,4.38
2022-08-29T09:53:25.632Z,3.80
2022-08-29T09:55:55.471Z,14.55
2022-08-29T09:58:25.783Z,3.90
2022-08-29T10:01:18.993Z,3.53
2022-08-29T10:04:00.589Z,4.10
2022-08-29T10:06:34.566Z,3.30
2022-08-29T10:09:14.733Z,3.53
2022-08-29T10:11:56.603Z,3.47
2022-08-29T10:14:50.546Z,3.77
2022-08-29T10:18:02.481Z,4.10
2022-08-29T10:20:44.735Z,3.95
2022-08-29T10:23:26.603Z,4.00
2022-08-29T10:25:56.420Z,3.58
2022-08-29T10:28:31.926Z,4.05
2022-08-29T10:31:06.363Z,4.18
2022-08-29T10:33:56.328Z,4.70
2022-08-29T10:36:32.994Z,4.65
2022-08-29T10:39:04.090Z,4.82
2022-08-29T10:41:53.278Z,5.90
2022-08-29T10:44:35.922Z,4.85
2022-08-29T10:47:16.161Z,5.45
2022-08-29T10:50:00.573Z,5.03
2022-08-29T10:52:54.665Z,5.45
2022-08-29T10:55:49.878Z,5.63
2022-08-29T10:58:39.153Z,6.60
2022-08-29T11:01:23.781Z,6.38
2022-08-29T11:04:08.546Z,5.88
2022-08-29T11:06:44.871Z,5.85
2022-08-29T11:09:39.276Z,5.85
2022-08-29T11:12:17.562Z,9.27
2022-08-29T11:14:55.303Z,11.00
2022-08-29T11:17:28.874Z,9.60
2022-08-29T11:20:21.105Z,8.95
2022-08-29T11:23:02.735Z,8.70
2022-08-29T11:25:34.899Z,8.13
2022-08-29T11:28:23.049Z,8.60
2022-08-29T11:31:19.635Z,8.00
2022-08-29T11:34:28.164Z,7.20
2022-08-29T11:37:26.822Z,7.50
2022-08-29T11:40:00.471Z,5.57
2022-08-29T11:42:50.850Z,6.80
2022-08-29T11:45:41.041Z,5.63
2022-08-29T11:48:34.504Z,5.72
2022-08-29T11:51:40.876Z,6.03
2022-08-29T11:54:31.174Z,5.28
2022-08-29T11:57:02.349Z,5.03
2022-08-29T11:59:56.262Z,4.93
2022-08-29T12:02:33.892Z,5.05
2022-08-29T12:05:10.615Z,5.10
2022-08-29T12:07:52.411Z,4.78
2022-08-29T12:10:25.439Z,4.65
2022-08-29T12:13:00.432Z,4.85
2022-08-29T12:15:33.988Z,5.38
2022-08-29T12:18:16.968Z,4.63
2022-08-29T12:20:50.533Z,5.07
2022-08-29T12:23:29.382Z,5.00
2022-08-29T12:26:21.438Z,6.10
2022-08-29T12:29:01.232Z,9.80
2022-08-29T12:31:56.878Z,7.05
2022-08-29T12:34:55.190Z,7.90
2022-08-29T12:37:45.935Z,9.10
2022-08-29T12:40:50.667Z,13.40
2022-08-29T12:43:44.078Z,11.05
2022-08-29T12:46:24.846Z,11.68
2022-08-29T12:49:04.849Z,12.63
2022-08-29T12:51:38.772Z,13.48
2022-08-29T12:54:09.433Z,11.68
2022-08-29T12:56:45.286Z,14.00
2022-08-29T12:59:20.888Z,12.43
2022-08-29T13:01:54.969Z,11.68
2022-08-29T13:04:32.227Z,13.05
2022-08-29T13:07:06.722Z,14.07
2022-08-29T13:09:46.607Z,13.45
2022-08-29T13:12:23.702Z,8.98
2022-08-29T13:15:32.555Z,9.38
2022-08-29T13:18:02.867Z,8.52
2022-08-29T13:21:11.416Z,8.68
2022-08-29T13:23:47.279Z,6.18
2022-08-29T13:26:17.401Z,6.00
2022-08-29T13:28:57.754Z,5.97
2022-08-29T13:31:29.446Z,5.75
2022-08-29T13:33:59.578Z,6.50
2022-08-29T13:36:50.707Z,6.10
2022-08-29T13:39:26.463Z,6.18
2022-08-29T13:42:16.966Z,5.90
2022-08-29T13:44:49.031Z,6.28
2022-08-29T13:47:25.539Z,6.05
2022-08-29T13:49:59.662Z,5.78
2022-08-29T13:52:31.448Z,6.00
2022-08-29T13:55:01.697Z,5.15
2022-08-29T13:57:32.909Z,5.50
2022-08-29T14:00:03.851Z,5.35
2022-08-29T14:02:33.296Z,5.45
2022-08-29T14:05:02.556Z,5.70
2022-08-29T14:07:33.273Z,5.38
2022-08-29T14:10:02.601Z,5.50
2022-08-29T14:12:34.101Z,5.82
2022-08-29T14:15:09.642Z,4.97
2022-08-29T14:17:42.408Z,5.60
2022-08-29T14:20:12.169Z,5.65
2022-08-29T14:22:41.959Z,5.75
2022-08-29T14:25:12.522Z,5.35
2022-08-29T14:27:42.248Z,5.85
2022-08-29T14:30:14.100Z,5.80
2022-08-29T14:32:43.356Z,5.60
2022-08-29T14:35:26.092Z,6.13
2022-08-29T14:37:57.854Z,5.90
2022-08-29T14:40:28.985Z,6.63
2022-08-29T14:42:59.477Z,6.22
2022-08-29T14:45:30.284Z,5.85
2022-08-29T14:48:00.350Z,5.97
2022-08-29T14:50:29.637Z,5.78
2022-08-29T14:52:59.038Z,5.63
2022-08-29T14:55:28.307Z,6.13
2022-08-29T14:57:57.576Z,5.97
2022-08-29T15:00:29.462Z,6.13
2022-08-29T15:02:59.434Z,6.30
2022-08-29T15:05:28.864Z,6.43
2022-08-29T15:08:00.660Z,6.07
2022-08-29T15:10:32.281Z,6.20
2022-08-29T15:13:01.582Z,5.50
2022-08-29T15:15:31.810Z,6.22
2022-08-29T15:18:02.930Z,6.15
2022-08-29T15:20:36.746Z,6.25
2022-08-29T15:23:06.908Z,5.95
2022-08-29T15:25:36.243Z,6.40
2022-08-29T15:28:07.423Z,6.30
2022-08-29T15:30:36.795Z,6.45
2022-08-29T15:33:06.624Z,6.40
2022-08-29T15:35:35.928Z,7.32
2022-08-29T15:38:05.256Z,6.30
2022-08-29T15:40:35.194Z,6.05
2022-08-29T15:43:05.653Z,6.38
2022-08-29T15:45:34.935Z,6.85
2022-08-29T15:48:05.908Z,6.60
2022-08-29T15:50:40.885Z,6.30
2022-08-29T15:53:10.701Z,7.07
2022-08-29T15:55:44.218Z,6.47
2022-08-29T15:58:14.152Z,6.35
2022-08-29T16:00:43.599Z,6.55
2022-08-29T16:03:12.815Z,6.45
2022-08-29T16:05:42.407Z,5.97
2022-08-29T16:08:16.417Z,5.85
2022-08-29T16:10:46.654Z,6.28
2022-08-29T16:13:16.293Z,6.28
2022-08-29T16:15:45.623Z,6.10
2022-08-29T16:18:15.068Z,5.97
2022-08-29T16:20:45.445Z,6.05
2022-08-29T16:23:15.018Z,6.20
2022-08-29T16:25:44.467Z,5.82
2022-08-29T16:28:13.669Z,6.15
2022-08-29T16:30:45.723Z,6.00
2022-08-29T16:33:15.845Z,5.50
2022-08-29T16:35:45.387Z,6.90
2022-08-29T16:38:14.719Z,6.28
2022-08-29T16:40:44.274Z,6.05
2022-08-29T16:43:13.566Z,6.65
2022-08-29T16:45:42.888Z,5.78
2022-08-29T16:48:17.090Z,6.63
2022-08-29T16:50:47.323Z,6.10
2022-08-29T16:53:16.716Z,6.35
2022-08-29T16:55:45.974Z,5.53
2022-08-29T16:58:35.119Z,6.28
2022-08-29T17:01:17.936Z,6.00
2022-08-29T17:06:15.912Z,7.13
2022-08-29T17:08:45.417Z,8.13
2022-08-29T17:11:14.966Z,7.80
2022-08-29T17:13:44.976Z,7.45
2022-08-29T17:16:15.069Z,7.55
2022-08-29T17:18:44.586Z,7.85
2022-08-29T17:21:14.740Z,7.85
2022-08-29T17:23:44.440Z,7.97
2022-08-29T17:26:17.725Z,7.95
2022-08-29T17:28:48.512Z,7.80
2022-08-29T17:31:18.641Z,8.07
2022-08-29T17:33:48.006Z,9.90
2022-08-29T17:36:18.342Z,9.32
2022-08-29T17:38:49.089Z,9.98
2022-08-29T17:41:24.061Z,9.50
2022-08-29T17:43:53.264Z,10.65
2022-08-29T17:46:23.841Z,10.23
2022-08-29T17:48:53.152Z,10.45
2022-08-29T17:51:23.020Z,10.27
2022-08-29T17:53:53.974Z,10.43
2022-08-29T17:56:31.063Z,10.60
2022-08-29T17:59:00.281Z,11.07
2022-08-29T18:01:32.427Z,10.43
2022-08-29T18:04:01.939Z,10.27
2022-08-29T18:06:32.569Z,10.43
2022-08-29T18:09:01.939Z,9.70
2022-08-29T18:11:33.085Z,10.20
2022-08-29T18:14:02.696Z,9.00
2022-08-29T18:16:31.942Z,9.75
2022-08-29T18:19:01.147Z,9.43
2022-08-29T18:21:31.497Z,10.15
2022-08-29T18:24:01.351Z,11.38
2022-08-29T18:26:31.252Z,9.95
2022-08-29T18:29:01.501Z,10.00
2022-08-29T18:31:30.738Z,9.57
2022-08-29T18:34:01.304Z,9.05
2022-08-29T18:36:32.577Z,8.30
2022-08-29T18:39:03.253Z,8.27
2022-08-29T18:41:32.921Z,8.50
2022-08-29T18:44:02.154Z,7.88
2022-08-29T18:46:31.855Z,9.48
2022-08-29T18:49:01.273Z,8.27
2022-08-29T18:51:30.612Z,6.60
2022-08-29T18:53:59.802Z,7.07
2022-08-29T18:56:29.149Z,7.60
2022-08-29T18:58:58.730Z,7.70
2022-08-29T19:01:30.274Z,7.35
2022-08-29T19:04:01.545Z,7.60
2022-08-29T19:06:30.985Z,6.82
2022-08-29T19:09:01.208Z,6.72
2022-08-29T19:11:30.839Z,6.15
2022-08-29T19:14:00.005Z,5.85
2022-08-29T19:16:29.300Z,6.78
2022-08-29T19:18:58.546Z,7.15
2022-08-29T19:21:27.787Z,7.07
2022-08-29T19:23:57.920Z,5.95
2022-08-29T19:26:31.269Z,8.68
2022-08-29T19:29:03.383Z,7.22
2022-08-29T19:31:33.115Z,7.03
2022-08-29T19:34:02.511Z,7.20
2022-08-29T19:36:31.708Z,7.45
2022-08-29T19:39:01.187Z,7.38
2022-08-29T19:41:30.356Z,7.30
2022-08-29T19:44:00.743Z,7.72
2022-08-29T19:46:30.120Z,8.48
2022-08-29T19:48:59.470Z,8.25
2022-08-29T19:51:33.887Z,7.57
2022-08-29T19:54:07.364Z,6.80
2022-08-29T19:56:37.798Z,7.88
2022-08-29T19:59:07.518Z,7.50
2022-08-29T20:01:37.368Z,8.05
2022-08-29T20:04:07.595Z,7.65
2022-08-29T20:06:37.438Z,8.25
2022-08-29T20:09:07.777Z,7.60
2022-08-29T20:11:43.458Z,7.68
2022-08-29T20:14:14.279Z,7.40
2022-08-29T20:16:44.299Z,8.70
2022-08-29T20:19:14.309Z,7.47
2022-08-29T20:21:46.193Z,7.13
2022-08-29T20:26:49.294Z,7.60
2022-08-29T20:29:19.154Z,7.43
2022-08-29T20:31:48.943Z,7.07
2022-08-29T20:34:18.720Z,7.70
2022-08-29T20:37:07.854Z,7.70
2022-08-29T20:39:41.292Z,7.22
2022-08-29T20:42:11.093Z,6.78
2022-08-29T20:44:43.183Z,7.45
2022-08-29T20:47:15.329Z,7.50
2022-08-29T20:49:44.738Z,7.28
2022-08-29T20:52:16.389Z,6.72
2022-08-29T20:54:46.099Z,7.15
2022-08-29T20:57:16.519Z,6.78
2022-08-29T20:59:46.214Z,6.40
2022-08-29T21:02:16.177Z,7.22
2022-08-29T21:05:05.122Z,6.70
2022-08-29T21:07:34.341Z,6.13
2022-08-29T21:10:03.534Z,6.72
2022-08-29T21:12:32.824Z,6.18
2022-08-29T21:15:02.366Z,7.03
2022-08-29T21:17:31.611Z,6.53
2022-08-29T21:20:01.248Z,6.47
2022-08-29T21:22:30.415Z,6.40
2022-08-29T21:24:59.717Z,6.20
2022-08-29T21:27:30.519Z,6.75
2022-08-29T21:29:59.816Z,6.20
2022-08-29T21:32:29.093Z,5.70
2022-08-29T21:34:58.357Z,5.65
2022-08-29T21:37:27.602Z,5.90
2022-08-29T21:39:56.790Z,5.85
2022-08-29T21:42:26.750Z,5.40
2022-08-29T21:44:57.537Z,5.30
2022-08-29T21:47:27.075Z,5.40
2022-08-29T21:49:56.198Z,5.00
2022-08-29T21:52:25.925Z,5.13
2022-08-29T21:54:55.584Z,3.95
2022-08-29T21:57:44.405Z,4.32
2022-08-29T22:00:17.233Z,4.28
2022-08-29T22:05:16.556Z,4.50
2022-08-29T22:07:47.245Z,3.25
2022-08-29T22:10:20.515Z,3.83
2022-08-29T22:12:49.680Z,3.22
2022-08-29T22:15:39.070Z,3.10
2022-08-29T22:18:09.112Z,3.65
2022-08-29T22:20:40.287Z,3.80
2022-08-29T22:23:10.187Z,3.15
2022-08-29T22:25:39.752Z,3.55
2022-08-29T22:28:11.853Z,3.17
2022-08-29T22:30:41.819Z,3.47
2022-08-29T22:33:12.894Z,3.15
2022-08-29T22:35:46.170Z,3.10
2022-08-29T22:38:15.722Z,2.78
2022-08-29T22:40:46.015Z,2.88
2022-08-29T22:43:15.770Z,2.90
2022-08-29T22:45:45.441Z,2.60
2022-08-29T22:48:20.182Z,3.17
2022-08-29T22:50:57.922Z,3.45
2022-08-29T22:53:27.837Z,3.00
2022-08-29T22:55:57.647Z,3.05
2022-08-29T22:58:27.873Z,2.85
2022-08-29T23:00:57.331Z,2.63
2022-08-29T23:03:27.143Z,6.38
2022-08-29T23:05:56.299Z,2.92
2022-08-29T23:08:26.745Z,2.95
2022-08-29T23:10:56.039Z,3.15
2022-08-29T23:13:25.677Z,2.60
2022-08-29T23:15:55.318Z,3.42
2022-08-29T23:18:24.597Z,3.33
2022-08-29T23:20:53.761Z,3.92
2022-08-29T23:23:23.415Z,2.80
2022-08-29T23:25:52.750Z,2.80
2022-08-29T23:28:21.992Z,3.13
2022-08-29T23:30:51.211Z,2.97
2022-08-29T23:33:20.489Z,3.45
2022-08-29T23:35:49.619Z,4.82
2022-08-29T23:38:19.260Z,10.73
2022-08-29T23:40:48.438Z,13.18
2022-08-29T23:43:18.419Z,10.65
2022-08-29T23:45:47.662Z,11.15
2022-08-29T23:48:24.035Z,12.60
2022-08-29T23:50:58.980Z,12.18
2022-08-29T23:53:28.422Z,9.60
2022-08-29T23:55:57.592Z,13.02
2022-08-29T23:58:26.883Z,17.90
